Time;durP1;ratioP1;P1;durP2;ratioP2;P2;SDS_P1;SDS_P2;PMS_P1;PMS_P2;Temp;Humidity;BMP_temperature;BMP_pressure;BME280_temperature;BME280_humidity;BME280_pressure;Samples;Min_cycle;Max_cycle;Signal;HPM_P1;HPM_P2
2021/12/05 00:22:00;;;;;;;19.85;6.32;;;;;;;3.38;88.53;99806.19;5033065;28;20057;-70
2021/12/05 00:24:32;;;;;;;21.00;5.88;;;;;;;3.37;88.63;99807.88;5063348;28;20017;-70
2021/12/05 00:27:04;;;;;;;21.33;6.22;;;;;;;3.38;88.68;99803.63;5030924;28;20048;-70
2021/12/05 00:29:46;;;;;;;21.95;6.85;;;;;;;3.38;88.53;99798.47;5032179;28;20043;-70
2021/12/05 00:32:23;;;;;;;23.10;5.80;;;;;;;3.38;88.76;99798.47;5033150;28;20029;-70
2021/12/05 00:35:14;;;;;;;23.60;6.30;;;;;;;3.37;88.47;99802.72;5066950;28;20022;-70
2021/12/05 00:38:20;;;;;;;21.07;5.83;;;;;;;3.37;88.66;99801.84;5034329;28;20287;-70
2021/12/05 01:10:12;;;;;;;21.90;5.78;;;;;;;3.02;88.73;99809.19;5034067;28;20041;-70
2021/12/05 01:12:45;;;;;;;;;;;;;;;3.05;89.16;99811.88;5034788;28;20030;-70
2021/12/05 01:15:17;;;;;;;21.65;6.30;;;;;;;2.98;88.75;99809.88;5035561;28;19963;-70
2021/12/05 01:18:00;;;;;;;18.45;5.63;;;;;;;2.93;88.81;99802.88;5030869;28;20092;-70
2021/12/05 01:20:28;;;;;;;20.52;5.80;;;;;;;2.89;88.83;99802.69;5028559;28;20137;-70
2021/12/05 01:23:02;;;;;;;24.98;6.57;;;;;;;2.86;89.00;99798.31;5035202;28;20145;-70
2021/12/05 01:28:13;;;;;;;19.85;6.80;;;;;;;2.81;88.89;99802.41;5035690;28;20033;-70
2021/12/05 01:35:55;;;;;;;21.30;5.75;;;;;;;2.75;89.16;99799.59;5039103;28;20034;-70
2021/12/05 01:38:52;;;;;;;19.20;6.13;;;;;;;2.72;89.46;99800.38;5038619;28;20048;-70
2021/12/05 01:57:30;;;;;;;19.13;5.38;;;;;;;2.63;89.59;99794.00;5037465;28;20041;-70
2021/12/05 02:00:15;;;;;;;16.48;5.70;;;;;;;2.61;90.22;99799.09;5035694;28;20036;-70
2021/12/05 02:02:58;;;;;;;20.40;5.90;;;;;;;2.57;89.96;99795.50;5038995;28;20188;-70
2021/12/05 02:11:16;;;;;;;23.10;5.53;;;;;;;2.52;90.55;99791.88;5032615;28;20251;-70
2021/12/05 02:33:07;;;;;;;18.23;4.63;;;;;;;2.51;91.05;99779.84;5033351;28;20028;-70
2021/12/05 02:35:42;;;;;;;20.08;5.38;;;;;;;2.53;91.06;99780.75;5037800;28;20029;-70
2021/12/05 02:43:11;;;;;;;20.17;4.68;;;;;;;2.53;91.07;99774.75;5034354;28;20069;-70
2021/12/05 02:45:40;;;;;;;21.13;4.60;;;;;;;2.51;91.25;99772.13;5031126;28;20017;-70
2021/12/05 02:48:07;;;;;;;15.82;4.40;;;;;;;2.52;91.12;99780.72;5036035;28;20184;-70
2021/12/05 02:50:35;;;;;;;22.80;4.45;;;;;;;2.53;91.22;99772.19;5034303;28;20079;-70
2021/12/05 02:53:32;;;;;;;16.30;4.53;;;;;;;2.53;90.78;99770.47;5038501;28;20088;-70
2021/12/05 02:55:49;;;;;;;20.08;4.43;;;;;;;2.54;90.96;99773.94;5036822;28;20292;-70
2021/12/05 03:01:10;;;;;;;17.02;4.20;;;;;;;2.53;91.23;99774.75;5034334;28;20076;-70
2021/12/05 03:03:35;;;;;;;15.88;4.30;;;;;;;2.53;91.23;99773.06;5033535;28;20281;-70
2021/12/05 03:06:12;;;;;;;20.10;4.43;;;;;;;2.54;91.04;99776.53;5034073;28;20072;-70
2021/12/05 03:08:38;;;;;;;17.23;4.40;;;;;;;2.55;91.70;99780.81;5032778;28;20033;-70
2021/12/05 03:11:05;;;;;;;18.20;5.18;;;;;;;2.55;91.81;99774.00;5032834;28;20415;-70
2021/12/05 03:13:35;;;;;;;16.52;4.53;;;;;;;2.58;92.03;99775.81;5032981;28;20289;-70
2021/12/05 03:16:00;;;;;;;17.77;4.90;;;;;;;2.58;91.83;99768.13;5032983;28;20231;-70
2021/12/05 03:18:25;;;;;;;16.85;4.95;;;;;;;2.58;91.60;99763.84;5039088;28;20028;-70
2021/12/05 03:20:50;;;;;;;20.42;5.20;;;;;;;2.60;91.55;99758.75;5030255;28;20057;-70
2021/12/05 03:23:16;;;;;;;14.05;4.25;;;;;;;2.63;91.67;99763.13;5033355;28;20029;-70
2021/12/05 03:25:41;;;;;;;16.17;4.53;;;;;;;2.64;91.73;99765.75;5031960;28;20038;-70
2021/12/05 03:28:07;;;;;;;19.00;5.90;;;;;;;2.65;91.54;99758.91;5036592;28;20151;-70
2021/12/05 03:30:33;;;;;;;22.55;5.22;;;;;;;2.67;91.62;99757.28;5031288;28;20041;-70
2021/12/05 03:32:59;;;;;;;19.08;5.93;;;;;;;2.67;91.69;99763.31;5040152;28;20029;-70
2021/12/05 03:35:27;;;;;;;22.60;6.03;;;;;;;2.70;91.94;99767.69;5033403;28;20040;-70
2021/12/05 03:37:52;;;;;;;22.55;6.82;;;;;;;2.70;91.48;99765.13;5030918;28;20072;-70
2021/12/05 03:40:23;;;;;;;20.25;5.85;;;;;;;2.70;91.61;99768.56;5029718;28;20018;-70
2021/12/05 03:42:48;;;;;;;23.52;5.82;;;;;;;2.71;91.43;99769.41;5023830;28;20273;-70
2021/12/05 03:45:21;;;;;;;22.52;6.72;;;;;;;2.71;91.70;99772.00;5034593;28;20037;-70
2021/12/05 03:47:47;;;;;;;19.48;6.50;;;;;;;2.72;91.49;99768.63;5030890;28;20050;-70
2021/12/05 03:50:13;;;;;;;19.90;6.78;;;;;;;2.73;91.82;99770.38;5034466;28;20025;-70
2021/12/05 03:52:39;;;;;;;19.25;6.78;;;;;;;2.75;92.10;99768.72;5036810;28;20021;-70
2021/12/05 03:55:07;;;;;;;18.02;6.38;;;;;;;2.76;92.13;99775.63;5038406;28;20474;-70
2021/12/05 03:57:32;;;;;;;18.60;6.50;;;;;;;2.77;91.87;99773.13;5027692;28;20034;-70
2021/12/05 03:59:57;;;;;;;20.33;7.28;;;;;;;2.80;91.93;99774.94;5065290;28;20104;-70
2021/12/05 04:02:23;;;;;;;25.23;7.43;;;;;;;2.81;92.14;99775.78;5034302;28;20301;-70
2021/12/05 04:04:50;;;;;;;20.33;6.90;;;;;;;2.83;91.75;99775.03;5034483;28;20022;-70
2021/12/05 04:07:16;;;;;;;20.75;6.90;;;;;;;2.85;91.83;99780.25;5032003;28;20067;-70
2021/12/05 04:09:41;;;;;;;20.60;7.13;;;;;;;2.88;92.00;99778.69;5034203;28;20172;-70
2021/12/05 04:12:07;;;;;;;19.58;7.15;;;;;;;2.88;92.13;99770.97;5035411;28;20028;-70
2021/12/05 04:14:44;;;;;;;17.90;6.57;;;;;;;2.90;91.87;99784.75;5036160;28;20034;-70
2021/12/05 04:17:12;;;;;;;19.25;6.53;;;;;;;2.93;91.33;99782.28;5033122;28;20033;-70
2021/12/05 04:19:39;;;;;;;21.58;7.13;;;;;;;2.94;92.08;99771.19;5034976;28;20025;-70
2021/12/05 04:22:06;;;;;;;18.52;7.07;;;;;;;2.98;91.82;99771.28;5034507;28;20021;-70
2021/12/05 04:24:33;;;;;;;23.85;7.00;;;;;;;3.00;91.85;99782.50;5033588;28;20041;-70
2021/12/05 04:26:59;;;;;;;17.92;6.75;;;;;;;3.01;91.77;99784.25;5034675;28;20029;-70
2021/12/05 04:29:24;;;;;;;18.52;7.13;;;;;;;3.02;91.86;99791.16;5032091;28;20056;-70
2021/12/05 04:31:50;;;;;;;24.08;6.63;;;;;;;3.03;91.70;99785.22;5035853;28;20181;-70
2021/12/05 04:34:15;;;;;;;18.08;6.90;;;;;;;3.03;92.04;99782.63;5034378;28;20348;-70
2021/12/05 04:36:42;;;;;;;17.05;6.22;;;;;;;3.04;91.53;99784.38;5035231;28;20023;-70
2021/12/05 04:39:08;;;;;;;21.10;6.43;;;;;;;3.07;91.67;99784.47;5031681;28;20060;-70
2021/12/05 04:41:34;;;;;;;19.90;7.32;;;;;;;3.06;91.60;99783.63;5030393;28;20173;-70
2021/12/05 04:44:01;;;;;;;14.27;6.43;;;;;;;3.08;91.90;99788.81;5032945;28;20048;-70
2021/12/05 04:46:27;;;;;;;21.70;7.00;;;;;;;3.10;91.81;99787.16;5030304;28;20085;-70
2021/12/05 04:48:55;;;;;;;21.25;6.88;;;;;;;3.09;91.71;99783.72;5030626;28;20041;-70
2021/12/05 04:51:26;;;;;;;21.05;7.65;;;;;;;3.13;91.69;99782.16;5033836;28;20033;-70
2021/12/05 04:53:52;;;;;;;17.13;6.45;;;;;;;3.13;91.80;99782.16;5031716;28;20017;-70
2021/12/05 04:56:18;;;;;;;19.40;6.85;;;;;;;3.13;91.93;99777.00;5031857;28;20281;-70
2021/12/05 04:58:44;;;;;;;20.30;6.90;;;;;;;3.13;91.88;99775.28;5035014;28;20079;-70
2021/12/05 05:01:09;;;;;;;18.48;6.15;;;;;;;3.15;91.88;99774.47;5044005;28;20029;-70
2021/12/05 05:03:35;;;;;;;17.48;6.45;;;;;;;3.14;91.80;99778.72;5035571;28;20164;-70
2021/12/05 05:06:14;;;;;;;13.40;6.10;;;;;;;3.15;92.08;99782.19;5037999;28;20029;-70
2021/12/05 05:08:40;;;;;;;17.40;6.33;;;;;;;3.16;91.79;99777.09;5039730;28;20026;-70
2021/12/05 05:11:08;;;;;;;15.60;6.38;;;;;;;3.15;92.17;99774.47;5041746;28;20199;-70
2021/12/05 05:13:35;;;;;;;16.73;6.45;;;;;;;3.15;91.92;99774.47;5038082;28;20212;-70
2021/12/05 05:16:03;;;;;;;21.52;7.38;;;;;;;3.15;92.10;99777.06;5074643;28;20082;-70
2021/12/05 05:18:36;;;;;;;18.13;7.03;;;;;;;3.15;92.29;99783.06;5039223;28;20038;-70
2021/12/05 05:21:15;;;;;;;18.83;7.70;;;;;;;3.15;92.27;99785.63;5041925;28;20025;-70
2021/12/05 05:29:05;;;;;;;15.05;6.00;;;;;;;3.15;92.44;99793.38;5041617;28;20034;-69
2021/12/05 05:40:13;;;;;;;13.00;5.60;;;;;;;3.15;92.44;99808.81;5036046;28;20240;-70
2021/12/05 05:50:17;;;;;;;11.93;5.03;;;;;;;3.13;91.99;99805.31;5043304;28;20068;-70
2021/12/05 05:52:42;;;;;;;10.10;5.18;;;;;;;3.11;91.78;99820.69;5033839;28;20346;-70
2021/12/05 05:55:09;;;;;;;10.77;4.82;;;;;;;3.11;91.88;99822.38;5037679;28;20030;-70
2021/12/05 06:00:11;;;;;;;10.88;4.57;;;;;;;3.09;91.96;99819.75;5037131;28;20099;-70
2021/12/05 06:05:22;;;;;;;8.05;3.50;;;;;;;3.05;91.21;99827.31;5035543;28;20573;-70
2021/12/05 06:07:47;;;;;;;8.13;3.35;;;;;;;3.02;91.47;99817.78;5040312;28;20044;-70
2021/12/05 06:10:21;;;;;;;13.27;3.80;;;;;;;3.00;91.08;99829.72;5029236;28;20085;-70
2021/12/05 06:12:46;;;;;;;6.88;3.20;;;;;;;2.98;91.16;99833.03;5056529;28;20022;-69
2021/12/05 06:15:14;;;;;;;8.60;3.83;;;;;;;2.95;91.35;99826.06;5031137;28;20026;-70
2021/12/05 06:17:40;;;;;;;9.50;4.05;;;;;;;2.91;91.55;99832.81;5041329;28;20025;-70
2021/12/05 06:20:11;;;;;;;8.73;4.05;;;;;;;2.89;91.84;99836.16;5034184;28;20211;-70
2021/12/05 06:22:36;;;;;;;8.98;4.38;;;;;;;2.89;91.98;99839.59;5039146;28;20041;-70
2021/12/05 06:25:05;;;;;;;9.25;3.85;;;;;;;2.87;91.91;99836.09;5037886;28;20052;-70
2021/12/05 06:27:30;;;;;;;11.07;4.65;;;;;;;2.84;91.93;99830.84;5031309;28;20029;-70
2021/12/05 06:30:07;;;;;;;10.15;4.40;;;;;;;2.85;92.37;99842.00;5039282;28;20061;-70
2021/12/05 06:38:11;;;;;;;8.18;3.60;;;;;;;2.83;92.29;99852.22;5033293;28;20099;-70
2021/12/05 06:40:53;;;;;;;7.65;3.65;;;;;;;2.82;92.59;99847.88;5029978;28;20025;-69
2021/12/05 06:46:12;;;;;;;9.93;3.80;;;;;;;2.82;92.73;99863.31;5039536;28;20029;-70
2021/12/05 06:48:39;;;;;;;10.18;3.97;;;;;;;2.81;92.51;99863.25;5033984;28;20200;-69
2021/12/05 06:51:06;;;;;;;7.68;4.15;;;;;;;2.81;92.70;99860.69;5036297;28;20022;-70
2021/12/05 06:53:31;;;;;;;9.13;4.18;;;;;;;2.82;92.96;99865.03;5031860;28;20052;-70
2021/12/05 06:55:56;;;;;;;8.45;3.58;;;;;;;2.83;92.76;99859.94;5066498;28;20013;-69
2021/12/05 06:58:22;;;;;;;8.32;4.10;;;;;;;2.82;92.87;99868.47;5038891;28;20059;-70
2021/12/05 07:00:47;;;;;;;8.95;3.90;;;;;;;2.83;92.92;99879.66;5037105;28;20025;-70
2021/12/05 07:03:13;;;;;;;9.27;4.22;;;;;;;2.83;92.99;99890.81;5034908;28;20025;-70
2021/12/05 07:08:05;;;;;;;9.02;4.32;;;;;;;2.83;92.88;99893.38;5031056;28;20033;-69
2021/12/05 07:10:35;;;;;;;9.70;4.50;;;;;;;2.84;92.84;99900.28;5030866;28;20029;-70
2021/12/05 07:13:41;;;;;;;12.00;4.97;;;;;;;2.84;93.01;99902.88;5036305;28;20017;-70
2021/12/05 07:18:54;;;;;;;11.93;5.43;;;;;;;2.86;93.42;99906.38;5031414;28;20048;-70
2021/12/05 07:21:46;;;;;;;12.30;5.72;;;;;;;2.86;93.29;99900.34;5033891;28;20053;-70
2021/12/05 07:24:34;;;;;;;11.52;5.25;;;;;;;2.87;93.34;99902.97;5035558;28;20030;-70
2021/12/05 07:40:30;;;;;;;14.07;6.20;;;;;;;2.93;93.66;99923.78;5030058;28;20064;-70
2021/12/05 07:43:11;;;;;;;15.63;6.10;;;;;;;2.95;93.20;99934.16;5037738;28;20057;-70
2021/12/05 07:45:44;;;;;;;16.33;7.18;;;;;;;2.96;93.57;99934.19;5038776;28;20243;-70
2021/12/05 07:48:15;;;;;;;14.73;6.55;;;;;;;2.98;93.26;99939.41;5028774;28;20387;-70
2021/12/05 07:50:59;;;;;;;13.23;6.22;;;;;;;2.99;93.07;99941.19;5030730;28;20102;-70
2021/12/05 07:53:31;;;;;;;13.35;5.90;;;;;;;3.00;93.34;99942.03;5033454;28;20071;-70
2021/12/05 07:56:04;;;;;;;16.35;7.07;;;;;;;3.02;93.50;99945.56;5031134;28;20071;-70
2021/12/05 08:14:36;;;;;;;13.95;6.03;;;;;;;3.09;93.06;99966.44;5028715;28;20028;-70
2021/12/05 08:17:03;;;;;;;15.07;5.88;;;;;;;3.11;92.91;99963.94;5030865;28;20041;-69
2021/12/05 08:19:28;;;;;;;13.05;6.20;;;;;;;3.12;93.27;99965.69;5034082;28;20040;-69
2021/12/05 08:21:56;;;;;;;14.15;5.72;;;;;;;3.13;93.42;99963.19;5031077;28;20715;-69
2021/12/05 08:24:30;;;;;;;15.20;5.82;;;;;;;3.13;93.29;99970.91;5031490;28;20059;-69
2021/12/05 08:26:56;;;;;;;17.05;6.57;;;;;;;3.15;92.98;99970.97;5050073;28;20033;-70
2021/12/05 08:32:35;;;;;;;13.73;5.97;;;;;;;3.16;93.19;99983.03;5031676;28;20048;-70
2021/12/05 08:39:06;;;;;;;11.98;5.53;;;;;;;3.20;93.32;99984.00;4992418;28;20351;-70
2021/12/05 08:43:53;;;;;;;13.60;5.90;;;;;;;3.22;93.12;99979.81;5029285;28;20091;-70
2021/12/05 09:19:52;;;;;;;14.82;6.82;;;;;;;3.22;93.35;100003.00;5031537;28;20597;-70
2021/12/05 09:26:11;;;;;;;18.33;7.88;;;;;;;3.23;93.18;100036.50;5051870;28;20044;-70
2021/12/05 10:01:53;;;;;;;19.00;8.77;;;;;;;3.37;93.91;100083.38;5043926;28;20033;-62
2021/12/05 10:06:57;;;;;;;18.45;8.80;;;;;;;3.38;94.22;100092.88;5044253;28;20024;-62
2021/12/05 10:12:45;;;;;;;21.95;9.15;;;;;;;3.39;94.37;100107.53;5037472;28;20283;-62
2021/12/05 10:18:46;;;;;;;23.75;9.15;;;;;;;3.42;94.64;100109.34;5038757;28;20060;-63
2021/12/05 10:37:24;;;;;;;20.53;8.73;;;;;;;3.43;94.43;100131.69;5042875;28;20288;-62
2021/12/05 10:40:07;;;;;;;20.42;9.35;;;;;;;3.43;94.58;100129.09;5044396;28;20558;-62
2021/12/05 10:42:48;;;;;;;24.08;9.25;;;;;;;3.43;94.43;100131.69;5044228;28;20105;-62
2021/12/05 10:45:19;;;;;;;21.23;8.77;;;;;;;3.42;94.19;100130.81;5044542;28;20013;-63
2021/12/05 10:47:48;;;;;;;20.80;9.23;;;;;;;3.43;94.28;100132.59;5041043;28;20033;-62
2021/12/05 10:50:32;;;;;;;23.45;9.50;;;;;;;3.45;94.51;100135.22;5041657;28;20053;-62
2021/12/05 10:53:24;;;;;;;23.40;9.77;;;;;;;3.46;93.94;100144.69;5036600;28;20175;-62
2021/12/05 10:56:06;;;;;;;20.45;8.65;;;;;;;3.45;93.54;100145.53;5042720;28;20186;-62
2021/12/05 10:58:39;;;;;;;20.08;8.63;;;;;;;3.46;93.85;100144.69;5042262;28;20022;-62
2021/12/05 11:01:08;;;;;;;22.17;9.43;;;;;;;3.46;93.87;100144.69;5041248;28;20028;-62
2021/12/05 11:03:34;;;;;;;20.75;9.32;;;;;;;3.46;93.75;100142.09;5042708;28;20037;-63
2021/12/05 11:05:59;;;;;;;23.65;9.80;;;;;;;3.45;93.87;100150.69;5043700;28;20104;-62
2021/12/05 11:08:37;;;;;;;22.15;9.65;;;;;;;3.45;94.02;100141.25;5040761;28;20052;-62
2021/12/05 11:11:13;;;;;;;20.52;9.02;;;;;;;3.46;93.59;100152.41;5036280;28;20143;-62
2021/12/05 11:13:46;;;;;;;19.58;8.88;;;;;;;3.46;93.13;100147.25;5042969;28;20130;-63
2021/12/05 11:16:31;;;;;;;20.17;9.10;;;;;;;3.49;93.09;100144.84;5043549;28;20034;-62
2021/12/05 11:18:57;;;;;;;20.48;8.60;;;;;;;3.50;92.97;100149.16;5039006;28;20026;-62
2021/12/05 11:21:33;;;;;;;20.50;8.55;;;;;;;3.51;92.76;100148.34;5043559;28;20056;-62
2021/12/05 11:24:08;;;;;;;17.88;8.10;;;;;;;3.54;93.12;100145.03;5043834;28;20044;-62
2021/12/05 11:26:34;;;;;;;19.05;9.23;;;;;;;3.57;93.01;100151.16;5042620;28;20109;-62
2021/12/05 11:28:59;;;;;;;21.88;9.23;;;;;;;3.59;93.28;100158.94;5043873;28;20107;-62
2021/12/05 11:31:27;;;;;;;20.05;8.60;;;;;;;3.62;92.99;100159.97;5043707;28;20033;-63
2021/12/05 11:33:55;;;;;;;20.25;9.50;;;;;;;3.65;92.93;100162.66;5043255;28;20037;-62
2021/12/05 11:36:25;;;;;;;20.92;9.35;;;;;;;3.66;93.09;100173.84;5030995;28;20269;-63
2021/12/05 11:38:51;;;;;;;19.58;8.75;;;;;;;3.67;92.77;100167.88;5043092;28;20026;-62
2021/12/05 11:41:21;;;;;;;18.48;8.25;;;;;;;3.67;92.40;100172.16;5042334;28;20091;-62
2021/12/05 11:43:56;;;;;;;17.23;8.02;;;;;;;3.65;92.45;100174.69;5041164;28;20025;-62
2021/12/05 11:46:22;;;;;;;17.00;8.25;;;;;;;3.63;91.97;100182.31;5040429;28;20037;-62
2021/12/05 11:48:47;;;;;;;14.93;7.15;;;;;;;3.61;92.33;100183.97;5043571;28;20193;-62
2021/12/05 11:51:31;;;;;;;16.55;7.72;;;;;;;3.62;92.35;100190.88;5042772;28;20032;-62
2021/12/05 11:53:57;;;;;;;14.68;6.63;;;;;;;3.61;92.31;100194.25;5037214;28;20021;-62
2021/12/05 11:56:46;;;;;;;14.88;6.53;;;;;;;3.63;92.42;100199.47;5035833;28;20037;-63
2021/12/05 11:59:37;;;;;;;15.90;6.90;;;;;;;3.63;92.17;100199.47;5041091;28;20085;-63
2021/12/05 12:02:22;;;;;;;18.15;7.68;;;;;;;3.62;92.34;100196.03;5036060;28;20066;-62
2021/12/05 12:05:06;;;;;;;16.52;6.93;;;;;;;3.63;91.95;100196.91;5027964;28;20052;-62
2021/12/05 12:07:38;;;;;;;19.25;8.32;;;;;;;3.63;92.38;100202.03;5041649;28;20072;-62
2021/12/05 12:10:14;;;;;;;19.60;8.18;;;;;;;3.64;92.35;100203.81;5042088;28;20028;-62
2021/12/05 12:12:46;;;;;;;17.25;7.88;;;;;;;3.65;91.89;100200.44;5039571;28;20272;-62
2021/12/05 12:15:14;;;;;;;15.93;7.22;;;;;;;3.67;92.10;100206.50;5042830;28;20164;-62
2021/12/05 12:17:40;;;;;;;18.93;7.70;;;;;;;3.68;91.71;100199.66;5034746;28;20022;-63
2021/12/05 12:20:11;;;;;;;17.13;7.15;;;;;;;3.71;92.01;100204.94;5042485;28;20071;-62
2021/12/05 12:22:37;;;;;;;14.52;7.13;;;;;;;3.74;91.65;100205.09;5039258;28;20022;-62
2021/12/05 12:25:10;;;;;;;14.60;7.38;;;;;;;3.74;91.99;100203.38;5032945;28;20036;-62
2021/12/05 12:27:36;;;;;;;13.52;6.88;;;;;;;3.77;91.93;100211.22;5039240;28;20037;-62
2021/12/05 12:30:05;;;;;;;17.15;7.78;;;;;;;3.79;92.08;100213.84;5034567;28;20284;-62
2021/12/05 12:32:35;;;;;;;15.38;7.07;;;;;;;3.81;92.28;100209.66;5029191;28;20315;-62
2021/12/05 12:35:11;;;;;;;16.30;7.38;;;;;;;3.81;91.64;100215.69;5034315;28;20095;-62
2021/12/05 12:38:01;;;;;;;15.50;7.65;;;;;;;3.82;91.62;100224.28;5042915;28;20104;-62
2021/12/05 12:40:32;;;;;;;16.23;7.35;;;;;;;3.80;91.25;100219.06;5042639;28;20029;-62
2021/12/05 12:42:58;;;;;;;13.98;7.43;;;;;;;3.78;91.34;100218.16;5042643;28;20049;-62
2021/12/05 12:45:23;;;;;;;17.67;7.25;;;;;;;3.78;91.54;100218.16;5042634;28;20168;-62
2021/12/05 12:47:55;;;;;;;15.32;7.72;;;;;;;3.80;91.70;100231.09;5042566;28;20101;-62
2021/12/05 12:50:40;;;;;;;17.45;8.25;;;;;;;3.79;91.33;100237.06;5041866;28;20030;-62
2021/12/05 12:53:16;;;;;;;18.20;8.00;;;;;;;3.80;91.51;100239.69;5038608;28;20033;-62
2021/12/05 12:56:09;;;;;;;18.25;8.40;;;;;;;3.81;91.32;100238.88;5040334;28;20025;-63
2021/12/05 12:58:43;;;;;;;18.73;8.30;;;;;;;3.81;91.50;100238.88;5036382;28;20097;-63
2021/12/05 13:05:01;;;;;;;20.40;8.57;;;;;;;3.82;91.44;100239.75;5036990;28;20029;-62
2021/12/05 13:10:24;;;;;;;18.80;8.38;;;;;;;3.83;91.31;100251.81;5037827;28;20200;-62
2021/12/05 13:12:53;;;;;;;22.05;9.52;;;;;;;3.82;91.23;100250.97;5040209;28;20025;-62
2021/12/05 13:15:28;;;;;;;20.85;8.95;;;;;;;3.83;91.45;100251.81;5042212;28;20099;-63
2021/12/05 13:18:08;;;;;;;20.42;8.40;;;;;;;3.82;91.55;100256.13;5041350;28;20160;-63
2021/12/05 13:20:42;;;;;;;21.33;8.77;;;;;;;3.85;91.28;100260.50;5046264;28;20063;-62
2021/12/05 13:23:15;;;;;;;20.33;9.00;;;;;;;3.86;91.60;100258.81;5038928;28;20033;-62
2021/12/05 13:26:06;;;;;;;23.58;9.27;;;;;;;3.88;91.56;100263.22;5045546;28;20037;-62
2021/12/05 13:28:35;;;;;;;22.02;8.68;;;;;;;3.88;90.84;100264.91;5046165;28;20337;-62
2021/12/05 13:31:30;;;;;;;23.17;9.43;;;;;;;3.90;91.29;100268.44;5043943;28;20038;-63
2021/12/05 13:34:27;;;;;;;22.77;9.40;;;;;;;3.89;91.26;100271.81;5036587;28;20049;-62
2021/12/05 13:37:13;;;;;;;20.60;8.95;;;;;;;3.92;91.59;100284.81;5044353;28;20083;-63
2021/12/05 13:39:57;;;;;;;21.95;8.98;;;;;;;3.90;91.11;100282.19;5039024;28;20049;-62
2021/12/05 13:42:34;;;;;;;26.70;9.50;;;;;;;3.92;90.72;100288.28;5044714;28;20345;-62
2021/12/05 13:44:59;;;;;;;25.58;10.25;;;;;;;3.91;90.52;100296.84;5045339;28;20032;-63
2021/12/05 13:47:31;;;;;;;23.95;10.00;;;;;;;3.94;90.36;100296.06;5076910;28;20033;-63
2021/12/05 13:52:47;;;;;;;21.80;9.27;;;;;;;3.93;89.76;100300.34;5045187;28;20104;-63
2021/12/05 13:55:45;;;;;;;21.20;8.95;;;;;;;3.94;90.16;100302.13;5044035;28;20093;-62
2021/12/05 13:58:21;;;;;;;23.60;9.13;;;;;;;3.94;90.43;100296.06;5045042;28;20337;-62
2021/12/05 14:01:17;;;;;;;26.65;10.38;;;;;;;3.94;90.19;100296.97;5044518;28;20262;-62
2021/12/05 14:03:51;;;;;;;24.05;10.07;;;;;;;3.94;90.44;100304.69;5041663;28;20236;-62
2021/12/05 14:06:31;;;;;;;20.60;8.77;;;;;;;3.93;90.15;100310.66;5044280;28;20088;-62
2021/12/05 14:09:06;;;;;;;25.27;9.35;;;;;;;3.92;90.48;100308.91;5044401;28;20282;-63
2021/12/05 14:11:33;;;;;;;21.05;9.00;;;;;;;3.92;90.28;100315.75;5045332;28;20033;-63
2021/12/05 14:14:06;;;;;;;23.45;9.02;;;;;;;3.91;90.47;100321.72;5076031;28;20177;-62
2021/12/05 14:16:35;;;;;;;24.98;9.18;;;;;;;3.91;90.30;100327.78;5041431;28;20117;-63
2021/12/05 14:19:01;;;;;;;21.50;8.75;;;;;;;3.91;89.77;100322.63;5038117;28;20053;-63
2021/12/05 14:21:27;;;;;;;20.58;8.30;;;;;;;3.90;89.95;100320.84;5044692;28;20032;-62
2021/12/05 14:23:55;;;;;;;20.05;8.13;;;;;;;3.91;90.00;100332.94;5044786;28;20033;-62
2021/12/05 14:26:25;;;;;;;22.27;8.45;;;;;;;3.90;89.80;100336.31;5044915;28;20151;-62
2021/12/05 14:29:12;;;;;;;21.60;8.43;;;;;;;3.92;89.46;100346.69;5043185;28;20284;-63
2021/12/05 14:31:41;;;;;;;22.02;8.18;;;;;;;3.90;89.03;100359.50;5043619;28;20021;-63
2021/12/05 14:34:11;;;;;;;21.23;9.20;;;;;;;3.91;89.17;100365.53;5044631;28;20029;-63
2021/12/05 14:36:43;;;;;;;20.58;8.25;;;;;;;3.92;89.24;100375.03;5042971;28;20084;-62
2021/12/05 14:39:25;;;;;;;22.45;8.57;;;;;;;3.93;89.47;100377.69;5033266;28;20030;-62
2021/12/05 14:41:55;;;;;;;22.70;9.10;;;;;;;3.94;89.51;100386.28;5031794;28;20037;-62
2021/12/05 14:44:21;;;;;;;21.38;8.25;;;;;;;3.95;89.84;100385.47;5040107;28;20273;-62
2021/12/05 14:46:56;;;;;;;22.20;8.65;;;;;;;3.96;90.36;100382.09;5044276;28;20051;-62
2021/12/05 14:49:26;;;;;;;23.42;9.00;;;;;;;3.96;90.00;100392.41;5044216;28;20025;-62
2021/12/05 14:51:53;;;;;;;19.25;7.78;;;;;;;3.96;89.36;100390.69;5044600;28;20052;-63
2021/12/05 14:54:22;;;;;;;22.08;8.10;;;;;;;3.96;89.68;100407.88;5040414;28;20276;-62
2021/12/05 14:56:49;;;;;;;19.95;7.82;;;;;;;3.95;89.53;100404.41;5043938;28;20036;-63
2021/12/05 14:59:16;;;;;;;20.45;8.40;;;;;;;3.97;90.54;100412.22;5043783;28;20029;-63
2021/12/05 15:01:46;;;;;;;23.35;8.27;;;;;;;3.97;90.64;100420.81;5042136;28;20096;-62
2021/12/05 15:04:12;;;;;;;31.23;8.68;;;;;;;3.96;90.69;100424.19;5043144;28;20108;-62
2021/12/05 15:06:42;;;;;;;23.50;8.65;;;;;;;3.96;90.33;100426.78;5038470;28;20060;-62
2021/12/05 15:09:27;;;;;;;23.58;9.05;;;;;;;3.97;90.39;100430.25;5043732;28;20102;-63
2021/12/05 15:12:00;;;;;;;23.85;9.77;;;;;;;3.96;90.63;100443.94;5034538;28;20021;-63
2021/12/05 15:14:26;;;;;;;23.60;9.55;;;;;;;3.94;90.71;100441.31;5043252;28;20033;-62
2021/12/05 15:16:54;;;;;;;23.25;9.57;;;;;;;3.93;90.90;100441.25;5041786;28;20033;-62
2021/12/05 15:19:19;;;;;;;23.13;9.43;;;;;;;3.91;91.44;100441.19;5043601;28;20045;-62
2021/12/05 15:21:44;;;;;;;21.38;8.50;;;;;;;3.92;90.99;100448.06;5043711;28;20033;-63
2021/12/05 15:24:19;;;;;;;22.35;8.85;;;;;;;3.92;91.26;100462.66;5043594;28;20044;-63
2021/12/05 15:26:45;;;;;;;23.60;8.55;;;;;;;3.90;90.97;100472.91;5043390;28;20075;-63
2021/12/05 15:29:11;;;;;;;22.80;8.80;;;;;;;3.89;91.40;100472.84;5042911;28;20029;-63
2021/12/05 15:31:38;;;;;;;23.92;9.32;;;;;;;3.88;91.77;100473.66;5037539;28;20067;-62
2021/12/05 15:34:18;;;;;;;23.67;9.20;;;;;;;3.89;91.77;100476.28;5035046;28;20285;-63
2021/12/05 15:36:44;;;;;;;24.17;9.68;;;;;;;3.88;91.65;100486.53;5042382;28;20025;-63
2021/12/05 15:39:11;;;;;;;22.92;9.90;;;;;;;3.87;91.70;100498.56;5036694;28;20028;-62
2021/12/05 15:41:36;;;;;;;26.13;9.60;;;;;;;3.85;91.31;100492.44;5043335;28;20064;-63
2021/12/05 15:44:02;;;;;;;28.80;10.70;;;;;;;3.86;91.55;100498.50;5043160;28;20025;-63
2021/12/05 15:46:28;;;;;;;27.92;10.77;;;;;;;3.85;92.15;100507.91;5043683;28;20275;-63
2021/12/05 15:48:55;;;;;;;32.03;11.15;;;;;;;3.82;92.13;100508.66;5039671;28;20034;-63
2021/12/05 15:51:22;;;;;;;31.90;12.98;;;;;;;3.82;91.93;100510.34;5043563;28;20108;-63
2021/12/05 15:53:47;;;;;;;32.40;12.45;;;;;;;3.81;91.83;100514.63;5042992;28;20032;-63
2021/12/05 15:56:16;;;;;;;37.90;14.23;;;;;;;3.83;91.61;100519.84;5043471;28;20033;-62
2021/12/05 15:58:52;;;;;;;33.45;13.85;;;;;;;3.83;91.54;100530.16;5042143;28;20304;-72
2021/12/05 16:01:23;;;;;;;29.75;12.40;;;;;;;3.81;91.69;100527.50;5054134;28;20126;-72
2021/12/05 16:03:50;;;;;;;27.90;11.82;;;;;;;3.82;91.76;100530.94;5034957;28;20056;-72
2021/12/05 16:06:19;;;;;;;28.40;11.55;;;;;;;3.83;91.90;100536.19;5039621;28;21176;-72
2021/12/05 16:08:47;;;;;;;27.77;10.77;;;;;;;3.84;91.52;100542.22;5035631;28;20037;-72
2021/12/05 16:11:15;;;;;;;31.42;11.52;;;;;;;3.84;91.30;100547.38;5037158;28;20037;-72
2021/12/05 16:13:42;;;;;;;31.00;11.15;;;;;;;3.84;91.62;100552.53;5037741;28;20037;-72
2021/12/05 16:16:21;;;;;;;26.63;11.35;;;;;;;3.83;91.43;100551.63;5067888;28;20033;-72
2021/12/05 16:18:50;;;;;;;28.05;12.75;;;;;;;3.83;91.19;100561.06;5035052;28;20035;-72
2021/12/05 16:21:27;;;;;;;31.13;13.63;;;;;;;3.82;91.54;100562.78;5035396;28;20040;-72
2021/12/05 16:23:56;;;;;;;31.73;14.57;;;;;;;3.81;91.36;100562.72;5036461;28;20028;-72
2021/12/05 16:26:25;;;;;;;30.38;14.73;;;;;;;3.81;91.44;100568.75;5036744;28;20084;-72
2021/12/05 16:28:57;;;;;;;32.90;14.40;;;;;;;3.81;91.62;100579.06;5039634;28;20033;-72
2021/12/05 16:31:55;;;;;;;30.10;13.85;;;;;;;3.83;91.67;100584.28;5066971;28;20167;-72
2021/12/05 16:34:24;;;;;;;28.88;13.30;;;;;;;3.81;91.54;100580.75;5039761;28;20047;-72
2021/12/05 16:36:58;;;;;;;29.55;13.70;;;;;;;3.82;91.59;100585.06;5072727;28;20059;-72
2021/12/05 16:39:31;;;;;;;27.67;12.80;;;;;;;3.81;91.31;100591.94;5036468;28;20087;-72
2021/12/05 16:42:08;;;;;;;28.38;13.93;;;;;;;3.81;91.82;100597.09;5039093;28;20094;-72